createdAt,value
2022-12-18T00:01:24.999Z,77.37
2022-12-18T00:03:53.545Z,77.01
2022-12-18T00:06:23.337Z,77.19
2022-12-18T00:08:50.394Z,77.63
2022-12-18T00:11:22.806Z,77.78
2022-12-18T00:13:50.882Z,77.69
2022-12-18T00:16:21.445Z,77.77
2022-12-18T00:18:50.094Z,78.25
2022-12-18T00:21:17.569Z,77.79
2022-12-18T00:23:45.384Z,77.50
2022-12-18T00:26:15.949Z,77.39
2022-12-18T00:28:43.634Z,77.63
2022-12-18T00:31:13.433Z,77.40
2022-12-18T00:33:40.909Z,77.29
2022-12-18T00:36:11.788Z,77.38
2022-12-18T00:38:39.166Z,77.68
2022-12-18T00:41:08.996Z,77.52
2022-12-18T00:43:37.395Z,77.61
2022-12-18T00:46:04.977Z,77.62
2022-12-18T00:48:33.106Z,77.37
2022-12-18T00:51:00.186Z,77.52
2022-12-18T00:53:27.235Z,77.17
2022-12-18T00:55:54.403Z,76.71
2022-12-18T00:58:21.441Z,76.80
2022-12-18T01:00:48.551Z,77.15
2022-12-18T01:03:15.854Z,77.19
2022-12-18T01:05:43.474Z,77.35
2022-12-18T01:08:10.706Z,76.86
2022-12-18T01:10:41.869Z,76.85
2022-12-18T01:13:09.197Z,76.91
2022-12-18T01:15:36.405Z,76.99
2022-12-18T01:18:06.931Z,77.15
2022-12-18T01:20:34.178Z,77.27
2022-12-18T01:23:01.202Z,77.33
2022-12-18T01:25:28.397Z,77.12
2022-12-18T01:27:55.509Z,76.38
2022-12-18T01:30:22.700Z,77.12
2022-12-18T01:32:49.854Z,77.18
2022-12-18T01:35:17.153Z,76.89
2022-12-18T01:37:44.331Z,77.22
2022-12-18T01:40:11.772Z,77.28
2022-12-18T01:42:39.109Z,77.41
2022-12-18T01:45:12.330Z,77.08
2022-12-18T01:47:45.869Z,76.87
2022-12-18T01:50:23.627Z,76.83
2022-12-18T01:52:57.432Z,76.74
2022-12-18T01:55:26.602Z,76.22
2022-12-18T01:57:55.323Z,76.66
2022-12-18T02:00:23.764Z,77.02
2022-12-18T02:02:51.068Z,76.79
2022-12-18T02:05:30.362Z,76.56
2022-12-18T02:08:03.587Z,76.43
2022-12-18T02:10:35.654Z,75.96
2022-12-18T02:13:27.691Z,75.75
2022-12-18T02:16:06.547Z,76.42
2022-12-18T02:18:37.727Z,76.57
2022-12-18T02:21:17.329Z,76.38
2022-12-18T02:23:57.951Z,76.50
2022-12-18T02:26:51.030Z,76.52
2022-12-18T02:29:22.793Z,76.26
2022-12-18T02:31:58.610Z,76.85
2022-12-18T02:34:29.225Z,76.77
2022-12-18T02:36:57.604Z,76.28
2022-12-18T02:39:26.297Z,76.35
2022-12-18T02:41:53.621Z,76.36
2022-12-18T02:44:20.947Z,76.46
2022-12-18T02:46:51.634Z,76.72
2022-12-18T02:49:37.936Z,77.15
2022-12-18T02:52:34.744Z,77.34
2022-12-18T02:55:19.881Z,76.43
2022-12-18T02:57:55.192Z,76.75
2022-12-18T03:00:44.095Z,77.28
2022-12-18T03:03:17.557Z,76.81
2022-12-18T03:05:59.191Z,77.13
2022-12-18T03:08:30.385Z,76.49
2022-12-18T03:11:07.769Z,76.67
2022-12-18T03:13:38.547Z,77.04
2022-12-18T03:16:07.775Z,77.12
2022-12-18T03:18:48.960Z,76.50
2022-12-18T03:21:18.545Z,76.06
2022-12-18T03:23:49.068Z,76.85
2022-12-18T03:26:20.519Z,76.59
2022-12-18T03:28:52.567Z,76.43
2022-12-18T03:31:21.708Z,76.46
2022-12-18T03:33:55.002Z,76.81
2022-12-18T03:36:23.681Z,76.79
2022-12-18T03:38:51.348Z,76.45
2022-12-18T03:41:24.538Z,76.56
2022-12-18T03:44:14.675Z,76.38
2022-12-18T03:47:03.002Z,76.61
2022-12-18T03:49:36.668Z,76.77
2022-12-18T03:52:07.278Z,76.61
2022-12-18T03:54:34.866Z,76.95
2022-12-18T03:57:09.877Z,76.50
2022-12-18T03:59:38.690Z,76.46
2022-12-18T04:02:07.755Z,76.37
2022-12-18T04:04:36.947Z,76.48
2022-12-18T04:07:04.397Z,76.45
2022-12-18T04:09:33.189Z,76.84
2022-12-18T04:12:00.263Z,76.41
2022-12-18T04:14:27.470Z,76.34
2022-12-18T04:16:54.930Z,76.49
2022-12-18T04:19:21.964Z,75.89
2022-12-18T04:21:49.068Z,76.00
2022-12-18T04:24:16.227Z,76.25
2022-12-18T04:26:43.251Z,75.95
2022-12-18T04:29:10.304Z,76.05
2022-12-18T04:31:37.388Z,76.07
2022-12-18T04:34:04.669Z,76.04
2022-12-18T04:36:31.787Z,75.82
2022-12-18T04:38:58.845Z,76.06
2022-12-18T04:41:25.924Z,75.72
2022-12-18T04:43:53.096Z,75.53
2022-12-18T04:46:20.175Z,76.12
2022-12-18T04:48:47.909Z,75.99
2022-12-18T04:51:15.520Z,76.30
2022-12-18T04:53:43.052Z,76.30
2022-12-18T04:56:15.349Z,76.37
2022-12-18T04:58:44.654Z,76.29
2022-12-18T05:01:13.373Z,76.12
2022-12-18T05:03:41.150Z,76.04
2022-12-18T05:06:08.489Z,76.46
2022-12-18T05:08:35.640Z,76.51
2022-12-18T05:11:05.329Z,76.39
2022-12-18T05:13:33.227Z,76.29
2022-12-18T05:16:01.102Z,76.57
2022-12-18T05:18:28.432Z,76.65
2022-12-18T05:20:55.738Z,76.68
2022-12-18T05:23:23.902Z,76.28
2022-12-18T05:25:59.770Z,76.41
2022-12-18T05:28:27.937Z,75.93
2022-12-18T05:30:57.741Z,76.19
2022-12-18T05:33:26.523Z,76.33
2022-12-18T05:35:55.469Z,76.66
2022-12-18T05:38:23.891Z,76.38
2022-12-18T05:40:51.874Z,75.79
2022-12-18T05:43:21.517Z,75.58
2022-12-18T05:45:49.134Z,76.15
2022-12-18T05:48:16.895Z,76.21
2022-12-18T05:50:46.448Z,75.03
2022-12-18T05:53:15.279Z,75.56
2022-12-18T05:55:42.910Z,75.62
2022-12-18T05:58:11.307Z,75.74
2022-12-18T06:00:40.868Z,75.96
2022-12-18T06:03:09.659Z,76.25
2022-12-18T06:05:41.956Z,76.02
2022-12-18T06:08:09.503Z,75.67
2022-12-18T06:10:37.373Z,76.00
2022-12-18T06:13:05.599Z,76.11
2022-12-18T06:15:33.058Z,76.01
2022-12-18T06:18:01.820Z,75.71
2022-12-18T06:20:33.205Z,75.52
2022-12-18T06:23:01.020Z,76.17
2022-12-18T06:25:28.208Z,75.90
2022-12-18T06:27:55.296Z,75.76
2022-12-18T06:30:22.330Z,75.69
2022-12-18T06:32:54.661Z,75.70
2022-12-18T06:35:23.917Z,75.27
2022-12-18T06:37:51.047Z,75.54
2022-12-18T06:40:18.318Z,75.50
2022-12-18T06:42:45.382Z,75.99
2022-12-18T06:45:12.518Z,76.06
2022-12-18T06:47:39.566Z,75.65
2022-12-18T06:50:07.229Z,75.47
2022-12-18T06:52:34.856Z,76.18
2022-12-18T06:55:02.012Z,75.64
2022-12-18T06:57:29.369Z,76.08
2022-12-18T06:59:56.514Z,75.45
2022-12-18T07:02:23.652Z,75.85
2022-12-18T07:04:50.808Z,75.85
2022-12-18T07:07:18.037Z,75.57
2022-12-18T07:09:45.118Z,75.63
2022-12-18T07:12:12.247Z,75.45
2022-12-18T07:14:39.313Z,76.10
2022-12-18T07:17:06.586Z,76.06
2022-12-18T07:19:34.515Z,75.99
2022-12-18T07:22:02.074Z,75.92
2022-12-18T07:24:30.019Z,75.69
2022-12-18T07:26:57.048Z,75.32
2022-12-18T07:29:24.135Z,76.02
2022-12-18T07:31:51.224Z,76.35
2022-12-18T07:34:18.403Z,75.94
2022-12-18T07:36:45.473Z,75.93
2022-12-18T07:39:13.075Z,76.07
2022-12-18T07:41:46.681Z,76.72
2022-12-18T07:44:14.135Z,76.62
2022-12-18T07:46:41.307Z,75.71
2022-12-18T07:49:08.385Z,76.49
2022-12-18T07:51:35.531Z,76.18
2022-12-18T07:54:02.600Z,76.48
2022-12-18T07:56:31.152Z,75.67
2022-12-18T07:59:00.073Z,75.08
2022-12-18T08:01:27.874Z,75.93
2022-12-18T08:03:55.125Z,76.45
2022-12-18T08:06:23.339Z,75.75
2022-12-18T08:08:55.687Z,75.68
2022-12-18T08:11:24.587Z,76.10
2022-12-18T08:13:51.702Z,76.55
2022-12-18T08:16:19.877Z,76.25
2022-12-18T08:18:47.837Z,75.70
2022-12-18T08:21:16.195Z,76.09
2022-12-18T08:23:43.920Z,75.67
2022-12-18T08:26:12.277Z,76.26
2022-12-18T08:28:39.952Z,76.48
2022-12-18T08:31:08.105Z,76.73
2022-12-18T08:33:36.107Z,76.15
2022-12-18T08:36:06.414Z,76.88
2022-12-18T08:38:34.474Z,76.57
2022-12-18T08:41:02.704Z,76.68
2022-12-18T08:43:48.764Z,77.32
2022-12-18T08:46:16.021Z,76.90
2022-12-18T08:48:43.291Z,77.22
2022-12-18T08:51:13.271Z,77.25
2022-12-18T08:53:40.690Z,77.71
2022-12-18T08:56:08.723Z,77.64
2022-12-18T08:58:35.782Z,77.60
2022-12-18T09:01:04.476Z,77.19
2022-12-18T09:03:32.711Z,77.14
2022-12-18T09:06:00.487Z,77.75
2022-12-18T09:08:28.247Z,77.51
2022-12-18T09:10:56.137Z,77.71
2022-12-18T09:13:23.891Z,77.76
2022-12-18T09:15:53.458Z,78.27
2022-12-18T09:18:21.962Z,78.03
2022-12-18T09:20:51.102Z,77.94
2022-12-18T09:23:18.404Z,77.97
2022-12-18T09:25:45.662Z,77.97
2022-12-18T09:28:18.607Z,77.58
2022-12-18T09:30:50.187Z,77.20
2022-12-18T09:33:18.149Z,77.54
2022-12-18T09:35:46.785Z,77.56
2022-12-18T09:38:16.414Z,77.28
2022-12-18T09:40:49.617Z,76.76
2022-12-18T09:43:25.732Z,76.75
2022-12-18T09:45:55.879Z,76.54
2022-12-18T09:48:26.812Z,76.27
2022-12-18T09:50:57.737Z,75.91
2022-12-18T09:53:27.860Z,76.28
2022-12-18T09:55:55.793Z,76.55
2022-12-18T09:58:40.689Z,75.69
2022-12-18T10:01:13.437Z,75.35
2022-12-18T10:03:40.867Z,74.74
2022-12-18T10:06:10.050Z,73.97
2022-12-18T10:08:43.029Z,73.21
2022-12-18T10:11:28.736Z,72.04
2022-12-18T10:14:13.020Z,72.86
2022-12-18T10:17:00.894Z,72.08
2022-12-18T10:19:57.703Z,71.43
2022-12-18T10:22:33.036Z,70.94
2022-12-18T10:25:11.111Z,68.63
2022-12-18T10:27:38.339Z,67.63
2022-12-18T10:30:21.853Z,67.53
2022-12-18T10:32:48.953Z,67.01
2022-12-18T10:35:22.720Z,67.47
2022-12-18T10:38:12.668Z,66.67
2022-12-18T10:40:50.617Z,66.58
2022-12-18T10:43:22.576Z,68.38
2022-12-18T10:46:08.609Z,68.70
2022-12-18T10:48:49.206Z,64.95
2022-12-18T10:51:31.579Z,65.34
2022-12-18T10:54:15.917Z,64.96
2022-12-18T10:56:43.736Z,63.58
2022-12-18T10:59:14.439Z,64.18
2022-12-18T11:01:58.778Z,61.92
2022-12-18T11:04:31.580Z,63.01
2022-12-18T11:07:07.886Z,62.84
2022-12-18T11:09:39.587Z,61.59
2022-12-18T11:12:18.377Z,61.97
2022-12-18T11:14:48.172Z,62.48
2022-12-18T11:17:26.287Z,63.26
2022-12-18T11:19:56.427Z,63.28
2022-12-18T11:22:23.724Z,62.54
2022-12-18T11:25:30.065Z,62.83
2022-12-18T11:28:24.212Z,60.36
2022-12-18T11:31:29.611Z,61.29
2022-12-18T11:34:28.678Z,62.42
2022-12-18T11:36:59.031Z,58.58
2022-12-18T11:39:39.650Z,58.86
2022-12-18T11:42:13.832Z,59.89
2022-12-18T11:44:52.966Z,59.58
2022-12-18T11:47:31.274Z,59.29
2022-12-18T11:50:01.964Z,59.15
2022-12-18T11:52:41.209Z,58.82
2022-12-18T11:55:17.196Z,59.02
2022-12-18T11:57:56.306Z,59.37
2022-12-18T12:00:23.937Z,58.79
2022-12-18T12:03:39.891Z,58.76
2022-12-18T12:06:30.753Z,59.46
2022-12-18T12:09:06.969Z,59.80
2022-12-18T12:11:52.437Z,60.13
2022-12-18T12:14:38.486Z,59.54
2022-12-18T12:17:08.508Z,59.40
2022-12-18T12:19:49.476Z,57.95
2022-12-18T12:22:25.596Z,57.55
2022-12-18T12:25:28.006Z,56.50
2022-12-18T12:28:51.102Z,55.73
2022-12-18T12:31:20.634Z,56.56
2022-12-18T12:34:02.335Z,55.85
2022-12-18T12:36:48.090Z,56.74
2022-12-18T12:39:18.866Z,56.80
2022-12-18T12:42:06.083Z,56.99
2022-12-18T12:44:41.921Z,56.50
2022-12-18T12:47:22.939Z,55.71
2022-12-18T12:49:50.928Z,57.91
2022-12-18T12:52:25.351Z,58.55
2022-12-18T12:54:52.738Z,58.98
2022-12-18T12:57:24.432Z,58.58
2022-12-18T13:00:01.037Z,58.29
2022-12-18T13:02:52.315Z,59.35
2022-12-18T13:05:38.814Z,58.20
2022-12-18T13:08:11.234Z,58.40
2022-12-18T13:10:40.542Z,58.87
2022-12-18T13:13:10.984Z,58.95
2022-12-18T13:15:46.097Z,58.98
2022-12-18T13:18:18.957Z,59.15
2022-12-18T13:20:56.342Z,59.14
2022-12-18T13:23:29.898Z,59.55
2022-12-18T13:29:07.892Z,60.52
2022-12-18T13:32:01.453Z,60.41
2022-12-18T13:34:31.885Z,60.49
2022-12-18T13:37:39.435Z,60.72
2022-12-18T13:40:45.064Z,60.60
2022-12-18T13:43:22.215Z,60.90
2022-12-18T13:46:51.000Z,61.97
2022-12-18T13:49:27.161Z,61.76
2022-12-18T13:51:55.888Z,61.75
2022-12-18T13:54:36.730Z,61.38
2022-12-18T13:57:07.328Z,61.62
2022-12-18T13:59:41.138Z,61.44
2022-12-18T14:02:18.084Z,60.48
2022-12-18T14:04:47.361Z,61.00
2022-12-18T14:07:19.826Z,60.79
2022-12-18T14:09:50.511Z,60.97
2022-12-18T14:12:39.644Z,61.21
2022-12-18T14:15:18.752Z,60.93
2022-12-18T14:17:45.900Z,61.19
2022-12-18T14:20:16.645Z,61.22
2022-12-18T14:22:47.874Z,61.57
2022-12-18T14:25:19.116Z,62.02
2022-12-18T14:27:51.673Z,61.55
2022-12-18T14:30:24.618Z,61.04
2022-12-18T14:33:27.734Z,60.68
2022-12-18T14:36:01.823Z,61.00
2022-12-18T14:38:34.323Z,60.97
2022-12-18T14:41:02.212Z,61.07
2022-12-18T14:43:32.751Z,60.54
2022-12-18T14:46:00.282Z,60.73
2022-12-18T14:48:40.642Z,60.86
2022-12-18T14:51:15.696Z,61.20
2022-12-18T14:53:53.998Z,60.35
2022-12-18T14:56:24.773Z,60.50
2022-12-18T14:58:55.184Z,61.11
2022-12-18T15:01:34.783Z,60.44
2022-12-18T15:04:02.995Z,60.40
2022-12-18T15:06:40.987Z,60.32
2022-12-18T15:09:25.567Z,60.32
2022-12-18T15:12:00.668Z,60.38
2022-12-18T15:14:41.698Z,59.98
2022-12-18T15:17:23.324Z,60.48
2022-12-18T15:19:53.983Z,60.84
2022-12-18T15:22:28.161Z,60.96
2022-12-18T15:24:56.728Z,60.84
2022-12-18T15:27:36.591Z,61.14
2022-12-18T15:30:09.766Z,60.97
2022-12-18T15:32:41.012Z,61.53
2022-12-18T15:35:18.599Z,61.92
2022-12-18T15:37:45.952Z,61.55
2022-12-18T15:40:17.895Z,61.37
2022-12-18T15:43:04.054Z,61.77
2022-12-18T15:45:31.495Z,62.31
2022-12-18T15:47:58.602Z,62.40
2022-12-18T15:50:25.857Z,62.29
2022-12-18T15:52:55.869Z,62.25
2022-12-18T15:55:43.212Z,62.16
2022-12-18T15:58:11.165Z,62.10
2022-12-18T16:00:40.545Z,61.92
2022-12-18T16:03:07.835Z,61.92
2022-12-18T16:05:35.111Z,61.71
2022-12-18T16:08:02.159Z,62.05
2022-12-18T16:10:29.445Z,61.01
2022-12-18T16:12:56.593Z,62.41
2022-12-18T16:15:24.890Z,62.48
2022-12-18T16:17:52.836Z,62.73
2022-12-18T16:20:21.888Z,62.78
2022-12-18T16:22:49.647Z,62.97
2022-12-18T16:25:23.718Z,62.59
2022-12-18T16:27:51.336Z,62.68
2022-12-18T16:30:21.722Z,62.75
2022-12-18T16:32:49.132Z,62.38
2022-12-18T16:35:17.336Z,62.25
2022-12-18T16:37:44.885Z,62.35
2022-12-18T16:40:14.296Z,62.78
2022-12-18T16:42:42.467Z,63.31
2022-12-18T16:45:11.886Z,62.95
2022-12-18T16:47:39.878Z,62.54
2022-12-18T16:50:08.222Z,62.74
2022-12-18T16:52:36.021Z,62.55
2022-12-18T16:55:03.743Z,63.16
2022-12-18T16:57:30.828Z,63.53
2022-12-18T17:00:04.436Z,63.56
2022-12-18T17:02:32.700Z,63.13
2022-12-18T17:04:59.999Z,62.96
2022-12-18T17:07:28.204Z,63.00
2022-12-18T17:09:55.632Z,63.15
2022-12-18T17:12:23.051Z,62.86
2022-12-18T17:14:50.242Z,63.08
2022-12-18T17:17:22.606Z,63.52
2022-12-18T17:19:51.495Z,63.49
2022-12-18T17:22:19.188Z,63.04
2022-12-18T17:24:47.106Z,62.85
2022-12-18T17:27:14.234Z,63.19
2022-12-18T17:29:47.384Z,63.40
2022-12-18T17:32:16.855Z,63.52
2022-12-18T17:34:43.971Z,62.83
2022-12-18T17:37:11.330Z,63.07
2022-12-18T17:39:38.478Z,63.84
2022-12-18T17:42:05.577Z,63.31
2022-12-18T17:44:34.351Z,62.66
2022-12-18T17:47:01.791Z,63.30
2022-12-18T17:49:29.115Z,63.29
2022-12-18T17:51:56.126Z,63.21
2022-12-18T17:54:23.219Z,62.33
2022-12-18T17:56:50.427Z,62.66
2022-12-18T17:59:17.539Z,61.88
2022-12-18T18:01:45.587Z,62.41
2022-12-18T18:04:13.464Z,61.94
2022-12-18T18:06:41.282Z,62.34
2022-12-18T18:09:16.332Z,62.45
2022-12-18T18:12:06.206Z,62.23
2022-12-18T18:14:33.583Z,61.86
2022-12-18T18:17:04.923Z,61.96
2022-12-18T18:19:32.957Z,62.46
2022-12-18T18:22:01.378Z,62.48
2022-12-18T18:24:29.172Z,61.01
2022-12-18T18:26:56.491Z,60.73
2022-12-18T18:29:26.970Z,60.37
2022-12-18T18:31:55.167Z,60.36
2022-12-18T18:34:24.549Z,60.46
2022-12-18T18:36:52.259Z,59.30
2022-12-18T18:39:19.906Z,59.75
2022-12-18T18:41:48.370Z,59.38
2022-12-18T18:44:20.673Z,59.34
2022-12-18T18:46:54.070Z,58.85
2022-12-18T18:49:21.282Z,57.33
2022-12-18T18:51:50.394Z,56.92
2022-12-18T18:54:17.463Z,57.45
2022-12-18T18:57:18.933Z,56.21
2022-12-18T18:59:32.270Z,55.22
2022-12-18T19:02:00.651Z,54.37
2022-12-18T19:04:33.068Z,52.26
2022-12-18T19:07:00.357Z,54.15
2022-12-18T19:09:28.629Z,52.58
2022-12-18T19:12:14.752Z,52.28
2022-12-18T19:14:42.284Z,51.46
2022-12-18T19:17:09.629Z,50.97
2022-12-18T19:19:37.289Z,50.29
2022-12-18T19:22:04.469Z,49.81
2022-12-18T19:24:31.617Z,49.16
2022-12-18T19:26:58.638Z,49.54
2022-12-18T19:29:25.771Z,48.26
2022-12-18T19:31:52.959Z,48.23
2022-12-18T19:34:20.262Z,46.06
2022-12-18T19:36:47.435Z,47.43
2022-12-18T19:39:16.959Z,47.39
2022-12-18T19:41:44.711Z,46.51
2022-12-18T19:44:14.261Z,46.92
2022-12-18T19:46:42.921Z,46.84
2022-12-18T19:49:11.492Z,47.10
2022-12-18T19:51:45.335Z,46.99
2022-12-18T19:54:16.670Z,47.92
2022-12-18T19:56:45.789Z,47.17
2022-12-18T19:59:13.005Z,47.10
2022-12-18T20:01:40.481Z,47.44
2022-12-18T20:04:07.984Z,46.61
2022-12-18T20:06:46.092Z,47.31
2022-12-18T20:09:13.245Z,47.62
2022-12-18T20:11:41.980Z,48.22
2022-12-18T20:14:10.842Z,47.14
2022-12-18T20:16:38.288Z,48.00
2022-12-18T20:19:05.678Z,48.00
2022-12-18T20:21:32.854Z,47.15
2022-12-18T20:24:01.223Z,46.78
2022-12-18T20:26:28.547Z,47.33
2022-12-18T20:28:55.866Z,47.29
2022-12-18T20:31:23.697Z,45.29
2022-12-18T20:33:52.101Z,46.19
2022-12-18T20:36:25.946Z,46.94
2022-12-18T20:38:58.166Z,45.52
2022-12-18T20:41:37.602Z,46.84
2022-12-18T20:44:21.644Z,46.35
2022-12-18T20:46:53.168Z,47.24
2022-12-18T20:49:20.308Z,45.90
2022-12-18T20:51:50.286Z,46.52
2022-12-18T20:54:17.404Z,46.46
2022-12-18T20:56:44.461Z,46.88
2022-12-18T20:59:11.671Z,46.39
2022-12-18T21:01:40.097Z,45.65
2022-12-18T21:04:13.427Z,45.44
2022-12-18T21:06:42.015Z,46.00
2022-12-18T21:09:10.014Z,45.71
2022-12-18T21:11:55.681Z,45.97
2022-12-18T21:14:25.433Z,46.60
2022-12-18T21:16:53.819Z,45.82
2022-12-18T21:19:23.422Z,46.41
2022-12-18T21:21:51.785Z,46.13
2022-12-18T21:24:19.121Z,45.70
2022-12-18T21:26:47.757Z,45.37
2022-12-18T21:29:20.452Z,45.98
2022-12-18T21:31:48.370Z,46.01
2022-12-18T21:34:21.731Z,45.47
2022-12-18T21:36:49.517Z,45.13
2022-12-18T21:39:16.943Z,45.78
2022-12-18T21:42:03.607Z,45.36
2022-12-18T21:44:30.784Z,43.23
2022-12-18T21:47:12.316Z,42.92
2022-12-18T21:49:50.576Z,42.51
2022-12-18T21:52:17.650Z,44.19
2022-12-18T21:54:44.799Z,42.94
2022-12-18T21:57:13.874Z,44.35
2022-12-18T21:59:42.382Z,44.11
2022-12-18T22:02:15.238Z,43.71
2022-12-18T22:04:43.338Z,42.52
2022-12-18T22:07:11.279Z,41.57
2022-12-18T22:09:38.418Z,44.20
2022-12-18T22:12:05.929Z,42.52
2022-12-18T22:14:32.995Z,42.55
2022-12-18T22:17:00.122Z,42.50
2022-12-18T22:19:28.221Z,43.71
2022-12-18T22:21:55.464Z,42.53
2022-12-18T22:24:24.490Z,42.85
2022-12-18T22:26:54.834Z,42.18
2022-12-18T22:29:47.243Z,40.81
2022-12-18T22:32:17.008Z,41.19
2022-12-18T22:34:49.323Z,41.85
2022-12-18T22:37:16.379Z,41.13
2022-12-18T22:39:43.830Z,42.01
2022-12-18T22:42:11.434Z,42.06
2022-12-18T22:44:39.664Z,41.76
2022-12-18T22:47:07.468Z,42.16
2022-12-18T22:49:35.611Z,41.58
2022-12-18T22:52:04.400Z,41.63
2022-12-18T22:54:31.485Z,41.25
2022-12-18T22:56:58.643Z,41.28
2022-12-18T22:59:26.766Z,41.56
2022-12-18T23:01:56.265Z,39.71
2022-12-18T23:04:30.633Z,42.94
2022-12-18T23:07:05.362Z,42.81
2022-12-18T23:09:32.724Z,41.33
2022-12-18T23:12:00.275Z,39.91
2022-12-18T23:14:28.317Z,39.68
2022-12-18T23:16:55.494Z,39.89
2022-12-18T23:19:23.693Z,40.33
2022-12-18T23:21:51.507Z,40.48
2022-12-18T23:24:18.612Z,40.46
2022-12-18T23:26:45.683Z,40.29
2022-12-18T23:29:13.806Z,41.34
2022-12-18T23:31:40.889Z,40.32
2022-12-18T23:34:08.158Z,39.69
2022-12-18T23:36:45.694Z,40.54
2022-12-18T23:39:15.495Z,41.24
2022-12-18T23:41:57.314Z,41.16
2022-12-18T23:44:24.498Z,42.49
2022-12-18T23:46:51.696Z,41.86
2022-12-18T23:49:18.780Z,43.21
2022-12-18T23:51:45.843Z,42.66
2022-12-18T23:54:12.886Z,42.03
2022-12-18T23:56:39.928Z,43.58
2022-12-18T23:59:06.974Z,45.18
